PGL YPJT-YMUL
Flight info
| Callsign | PGL |
|---|---|
| Flight time | 0h 15m |
| Altitude | 4000 |
| Route | JANDO DCT SHOP DCT YSEN |
| Aircraft | C172/L-SFG/C |
Departure
| Time | 2026-04-26 14:14 |
|---|---|
| Airport | Perth Jandakot Airport (YPJT) |
Arrival
| Time | 2026-04-26 14:29 |
|---|---|
| Airport | Murray Field (YMUL) |
| Time | Latitude | Longitude | Altitude | Speed | Heading |
|---|---|---|---|---|---|
| 2026-04-26 14:02 | -32.09857 | 115.87335 | 96 ft | 0 kts | 103° |
| 2026-04-26 14:10 | -32.09843 | 115.87346 | 96 ft | 6 kts | 24° |
| 2026-04-26 14:10 | -32.09847 | 115.87403 | 96 ft | 10 kts | 156° |
| 2026-04-26 14:10 | -32.09911 | 115.87401 | 95 ft | 10 kts | 205° |
| 2026-04-26 14:11 | -32.09963 | 115.87325 | 95 ft | 0 kts | 236° |
| 2026-04-26 14:12 | -32.09968 | 115.87317 | 95 ft | 1 kts | 230° |
| 2026-04-26 14:12 | -32.09990 | 115.87294 | 94 ft | 13 kts | 208° |
| 2026-04-26 14:12 | -32.10020 | 115.87313 | 94 ft | 0 kts | 113° |
| 2026-04-26 14:13 | -32.10222 | 115.87828 | 107 ft | 78 kts | 121° |
| 2026-04-26 14:13 | -32.10439 | 115.88402 | 337 ft | 79 kts | 120° |
| 2026-04-26 14:13 | -32.10573 | 115.89034 | 563 ft | 82 kts | 108° |
| 2026-04-26 14:14 | -32.10711 | 115.89699 | 744 ft | 84 kts | 109° |
| 2026-04-26 14:14 | -32.10904 | 115.90374 | 922 ft | 90 kts | 113° |
| 2026-04-26 14:14 | -32.11048 | 115.91119 | 1081 ft | 96 kts | 97° |
| 2026-04-26 14:14 | -32.11095 | 115.91903 | 1302 ft | 95 kts | 95° |
| 2026-04-26 14:15 | -32.11185 | 115.92676 | 1514 ft | 96 kts | 96° |
| 2026-04-26 14:15 | -32.11292 | 115.93429 | 1729 ft | 93 kts | 97° |
| 2026-04-26 14:15 | -32.11376 | 115.94185 | 1863 ft | 94 kts | 95° |
| 2026-04-26 14:15 | -32.11464 | 115.94955 | 2011 ft | 94 kts | 94° |
| 2026-04-26 14:16 | -32.11631 | 115.95695 | 2177 ft | 97 kts | 116° |
| 2026-04-26 14:16 | -32.11994 | 115.96398 | 2259 ft | 102 kts | 110° |
| 2026-04-26 14:16 | -32.12258 | 115.97181 | 2370 ft | 102 kts | 105° |
| 2026-04-26 14:16 | -32.12626 | 115.97919 | 2445 ft | 111 kts | 126° |
| 2026-04-26 14:17 | -32.13136 | 115.98623 | 2481 ft | 115 kts | 121° |
| 2026-04-26 14:17 | -32.13619 | 115.99377 | 2570 ft | 114 kts | 122° |
| 2026-04-26 14:17 | -32.14112 | 116.00097 | 2681 ft | 114 kts | 122° |
| 2026-04-26 14:17 | -32.14667 | 116.00755 | 2816 ft | 116 kts | 147° |
| 2026-04-26 14:18 | -32.15475 | 116.00953 | 2907 ft | 123 kts | 179° |
| 2026-04-26 14:18 | -32.16298 | 116.00686 | 3011 ft | 125 kts | 201° |
| 2026-04-26 14:18 | -32.17112 | 116.00325 | 3109 ft | 125 kts | 202° |
| 2026-04-26 14:18 | -32.17985 | 115.99942 | 2982 ft | 141 kts | 200° |
| 2026-04-26 14:19 | -32.18885 | 115.99577 | 3054 ft | 135 kts | 197° |
| 2026-04-26 14:19 | -32.19754 | 115.99189 | 3097 ft | 135 kts | 204° |
| 2026-04-26 14:19 | -32.20621 | 115.98789 | 3100 ft | 136 kts | 202° |
| 2026-04-26 14:19 | -32.21507 | 115.98380 | 3103 ft | 137 kts | 203° |
| 2026-04-26 14:20 | -32.22399 | 115.97972 | 3104 ft | 138 kts | 202° |
| 2026-04-26 14:20 | -32.23294 | 115.97559 | 3103 ft | 138 kts | 203° |
| 2026-04-26 14:20 | -32.24190 | 115.97147 | 3105 ft | 138 kts | 203° |
| 2026-04-26 14:20 | -32.25083 | 115.96718 | 3105 ft | 139 kts | 204° |
| 2026-04-26 14:21 | -32.25978 | 115.96290 | 3105 ft | 139 kts | 204° |
| 2026-04-26 14:21 | -32.26873 | 115.95864 | 3105 ft | 139 kts | 204° |
| 2026-04-26 14:21 | -32.27767 | 115.95440 | 3106 ft | 138 kts | 204° |
| 2026-04-26 14:21 | -32.28650 | 115.95021 | 3104 ft | 139 kts | 204° |
| 2026-04-26 14:22 | -32.29542 | 115.94598 | 3107 ft | 138 kts | 204° |
| 2026-04-26 14:22 | -32.30430 | 115.94177 | 3107 ft | 137 kts | 204° |
| 2026-04-26 14:22 | -32.31318 | 115.93758 | 3107 ft | 137 kts | 204° |
| 2026-04-26 14:22 | -32.32206 | 115.93334 | 3107 ft | 138 kts | 203° |
| 2026-04-26 14:23 | -32.33092 | 115.92912 | 3107 ft | 137 kts | 203° |
| 2026-04-26 14:23 | -32.33980 | 115.92491 | 3107 ft | 137 kts | 204° |
| 2026-04-26 14:23 | -32.34865 | 115.92073 | 3120 ft | 137 kts | 204° |
| 2026-04-26 14:23 | -32.35739 | 115.91664 | 3121 ft | 137 kts | 203° |
| 2026-04-26 14:24 | -32.36623 | 115.91245 | 3115 ft | 137 kts | 203° |
| 2026-04-26 14:24 | -32.37506 | 115.90829 | 3113 ft | 137 kts | 204° |
| 2026-04-26 14:24 | -32.38389 | 115.90415 | 3113 ft | 136 kts | 204° |
| 2026-04-26 14:24 | -32.39270 | 115.90003 | 3114 ft | 136 kts | 203° |
| 2026-04-26 14:25 | -32.40152 | 115.89584 | 3074 ft | 135 kts | 204° |
| 2026-04-26 14:25 | -32.40998 | 115.89142 | 2891 ft | 132 kts | 205° |
| 2026-04-26 14:25 | -32.41828 | 115.88708 | 2723 ft | 130 kts | 204° |
| 2026-04-26 14:25 | -32.42644 | 115.88284 | 2513 ft | 130 kts | 203° |
| 2026-04-26 14:26 | -32.43473 | 115.87842 | 2315 ft | 129 kts | 205° |
| 2026-04-26 14:26 | -32.44283 | 115.87385 | 2132 ft | 129 kts | 205° |
| 2026-04-26 14:26 | -32.45090 | 115.86909 | 1880 ft | 132 kts | 205° |
| 2026-04-26 14:26 | -32.45911 | 115.86450 | 1561 ft | 126 kts | 203° |
| 2026-04-26 14:27 | -32.46654 | 115.85967 | 1318 ft | 118 kts | 209° |
| 2026-04-26 14:27 | -32.47322 | 115.85454 | 1161 ft | 113 kts | 212° |
| 2026-04-26 14:27 | -32.47949 | 115.84883 | 1005 ft | 113 kts | 217° |
| 2026-04-26 14:27 | -32.48556 | 115.84286 | 874 ft | 113 kts | 218° |
| 2026-04-26 14:28 | -32.49156 | 115.83687 | 762 ft | 111 kts | 217° |
| 2026-04-26 14:28 | -32.49752 | 115.83115 | 662 ft | 109 kts | 215° |
| 2026-04-26 14:28 | -32.50300 | 115.82554 | 496 ft | 95 kts | 220° |
| 2026-04-26 14:28 | -32.50730 | 115.82072 | 377 ft | 79 kts | 222° |
| 2026-04-26 14:29 | -32.51156 | 115.81899 | 437 ft | 64 kts | 148° |
| 2026-04-26 14:29 | -32.51253 | 115.82432 | 279 ft | 73 kts | 91° |
| 2026-04-26 14:29 | -32.51077 | 115.82968 | 149 ft | 72 kts | 53° |
| 2026-04-26 14:29 | -32.50758 | 115.83363 | 39 ft | 48 kts | 46° |
| 2026-04-26 14:30 | -32.50619 | 115.83532 | 40 ft | 22 kts | 44° |
| 2026-04-26 14:30 | -32.50530 | 115.83634 | 40 ft | 13 kts | 30° |
| 2026-04-26 14:30 | -32.50483 | 115.83604 | 39 ft | 0 kts | 315° |
| 2026-04-26 14:31 | -32.50479 | 115.83599 | 39 ft | 4 kts | 313° |
| 2026-04-26 14:31 | -32.50475 | 115.83557 | 38 ft | 8 kts | 224° |
| 2026-04-26 14:31 | -32.50537 | 115.83489 | 39 ft | 16 kts | 225° |
| 2026-04-26 14:31 | -32.50612 | 115.83393 | 39 ft | 15 kts | 227° |
| 2026-04-26 14:32 | -32.50682 | 115.83311 | 39 ft | 15 kts | 227° |
| 2026-04-26 14:32 | -32.50749 | 115.83229 | 39 ft | 12 kts | 229° |
| 2026-04-26 14:32 | -32.50809 | 115.83157 | 39 ft | 12 kts | 225° |
| 2026-04-26 14:32 | -32.50866 | 115.83164 | 39 ft | 11 kts | 134° |
| 2026-04-26 14:33 | -32.50862 | 115.83235 | 40 ft | 11 kts | 46° |
| 2026-04-26 14:33 | -32.50839 | 115.83249 | 40 ft | 7 kts | 220° |
| 2026-04-26 14:33 | -32.50892 | 115.83204 | 39 ft | 8 kts | 216° |
| 2026-04-26 14:33 | -32.50943 | 115.83158 | 38 ft | 10 kts | 159° |
| 2026-04-26 14:34 | -32.50951 | 115.83232 | 40 ft | 11 kts | 89° |
| 2026-04-26 14:34 | -32.50952 | 115.83345 | 40 ft | 12 kts | 88° |
| 2026-04-26 14:34 | -32.50988 | 115.83380 | 40 ft | 7 kts | 161° |
| 2026-04-26 14:34 | -32.51005 | 115.83427 | 40 ft | 7 kts | 97° |
| 2026-04-26 14:35 | -32.50994 | 115.83463 | 40 ft | 3 kts | 358° |
| 2026-04-26 14:35 | -32.50991 | 115.83462 | 40 ft | 0 kts | 336° |